sensor_id;sensor_type;location;lat;lon;timestamp;P1;durP1;ratioP1;P2;durP2;ratioP2
83410;SDS011;73340;53.132;8.174;2024-01-16T00:00:56;4.35;;;1.35;;
83410;SDS011;73340;53.132;8.174;2024-01-16T00:03:21;3.50;;;1.50;;
83410;SDS011;73340;53.132;8.174;2024-01-16T00:05:46;3.17;;;1.50;;
83410;SDS011;73340;53.132;8.174;2024-01-16T00:08:11;5.57;;;1.40;;
83410;SDS011;73340;53.132;8.174;2024-01-16T00:10:37;2.23;;;1.00;;
83410;SDS011;73340;53.132;8.174;2024-01-16T00:13:02;1.67;;;1.20;;
83410;SDS011;73340;53.132;8.174;2024-01-16T00:15:27;5.13;;;1.93;;
83410;SDS011;73340;53.132;8.174;2024-01-16T00:17:52;1.73;;;0.80;;
83410;SDS011;73340;53.132;8.174;2024-01-16T00:20:18;1.17;;;1.00;;
83410;SDS011;73340;53.132;8.174;2024-01-16T00:22:43;0.73;;;0.70;;
83410;SDS011;73340;53.132;8.174;2024-01-16T00:25:08;1.10;;;0.90;;
83410;SDS011;73340;53.132;8.174;2024-01-16T00:27:34;2.03;;;0.70;;
83410;SDS011;73340;53.132;8.174;2024-01-16T00:29:59;1.33;;;1.03;;
83410;SDS011;73340;53.132;8.174;2024-01-16T00:32:24;1.60;;;0.97;;
83410;SDS011;73340;53.132;8.174;2024-01-16T00:34:50;1.13;;;0.93;;
83410;SDS011;73340;53.132;8.174;2024-01-16T00:37:16;1.50;;;1.00;;
83410;SDS011;73340;53.132;8.174;2024-01-16T00:39:42;2.70;;;0.70;;
83410;SDS011;73340;53.132;8.174;2024-01-16T00:42:07;0.65;;;0.55;;
83410;SDS011;73340;53.132;8.174;2024-01-16T00:44:33;0.85;;;0.70;;
83410;SDS011;73340;53.132;8.174;2024-01-16T00:46:58;3.20;;;1.03;;
83410;SDS011;73340;53.132;8.174;2024-01-16T00:49:26;1.25;;;1.02;;
83410;SDS011;73340;53.132;8.174;2024-01-16T00:51:51;1.15;;;0.85;;
83410;SDS011;73340;53.132;8.174;2024-01-16T00:54:16;3.20;;;1.07;;
83410;SDS011;73340;53.132;8.174;2024-01-16T00:56:42;1.53;;;1.10;;
83410;SDS011;73340;53.132;8.174;2024-01-16T00:59:07;5.40;;;0.85;;
83410;SDS011;73340;53.132;8.174;2024-01-16T01:01:33;2.13;;;0.67;;
83410;SDS011;73340;53.132;8.174;2024-01-16T01:03:58;3.67;;;1.00;;
83410;SDS011;73340;53.132;8.174;2024-01-16T01:06:23;1.37;;;0.80;;
83410;SDS011;73340;53.132;8.174;2024-01-16T01:08:48;5.03;;;0.80;;
83410;SDS011;73340;53.132;8.174;2024-01-16T01:11:13;0.80;;;0.63;;
83410;SDS011;73340;53.132;8.174;2024-01-16T01:13:39;2.20;;;1.10;;
83410;SDS011;73340;53.132;8.174;2024-01-16T01:16:04;2.37;;;0.90;;
83410;SDS011;73340;53.132;8.174;2024-01-16T01:18:29;1.20;;;0.80;;
83410;SDS011;73340;53.132;8.174;2024-01-16T01:20:54;1.93;;;1.00;;
83410;SDS011;73340;53.132;8.174;2024-01-16T01:25:46;2.03;;;1.10;;
83410;SDS011;73340;53.132;8.174;2024-01-16T01:28:11;2.23;;;0.90;;
83410;SDS011;73340;53.132;8.174;2024-01-16T01:30:36;3.28;;;1.02;;
83410;SDS011;73340;53.132;8.174;2024-01-16T01:33:02;2.60;;;0.82;;
83410;SDS011;73340;53.132;8.174;2024-01-16T01:35:27;4.00;;;0.97;;
83410;SDS011;73340;53.132;8.174;2024-01-16T01:37:52;2.10;;;1.10;;
83410;SDS011;73340;53.132;8.174;2024-01-16T01:40:17;7.17;;;4.30;;
83410;SDS011;73340;53.132;8.174;2024-01-16T01:42:42;13.23;;;6.27;;
83410;SDS011;73340;53.132;8.174;2024-01-16T01:45:11;3.33;;;1.30;;
83410;SDS011;73340;53.132;8.174;2024-01-16T01:47:39;3.80;;;1.45;;
83410;SDS011;73340;53.132;8.174;2024-01-16T01:50:08;2.20;;;1.38;;
83410;SDS011;73340;53.132;8.174;2024-01-16T01:52:34;3.08;;;1.55;;
83410;SDS011;73340;53.132;8.174;2024-01-16T01:55:00;2.55;;;1.20;;
83410;SDS011;73340;53.132;8.174;2024-01-16T01:57:26;1.98;;;1.77;;
83410;SDS011;73340;53.132;8.174;2024-01-16T01:59:52;3.58;;;1.40;;
83410;SDS011;73340;53.132;8.174;2024-01-16T02:02:17;6.00;;;1.67;;
83410;SDS011;73340;53.132;8.174;2024-01-16T02:04:43;5.27;;;1.80;;
83410;SDS011;73340;53.132;8.174;2024-01-16T02:09:34;5.13;;;1.67;;
83410;SDS011;73340;53.132;8.174;2024-01-16T02:11:59;3.05;;;1.10;;
83410;SDS011;73340;53.132;8.174;2024-01-16T02:14:25;3.97;;;1.20;;
83410;SDS011;73340;53.132;8.174;2024-01-16T02:16:50;4.60;;;1.57;;
83410;SDS011;73340;53.132;8.174;2024-01-16T02:19:16;3.25;;;1.60;;
83410;SDS011;73340;53.132;8.174;2024-01-16T02:21:47;2.17;;;1.57;;
83410;SDS011;73340;53.132;8.174;2024-01-16T02:24:16;3.50;;;1.35;;
83410;SDS011;73340;53.132;8.174;2024-01-16T02:26:42;2.15;;;1.15;;
83410;SDS011;73340;53.132;8.174;2024-01-16T02:29:07;2.75;;;1.02;;
83410;SDS011;73340;53.132;8.174;2024-01-16T02:31:33;3.20;;;1.47;;
83410;SDS011;73340;53.132;8.174;2024-01-16T02:33:58;3.80;;;1.30;;
83410;SDS011;73340;53.132;8.174;2024-01-16T02:36:24;5.38;;;1.10;;
83410;SDS011;73340;53.132;8.174;2024-01-16T02:38:50;7.35;;;1.92;;
83410;SDS011;73340;53.132;8.174;2024-01-16T02:41:15;6.47;;;3.00;;
83410;SDS011;73340;53.132;8.174;2024-01-16T02:43:41;17.85;;;8.30;;
83410;SDS011;73340;53.132;8.174;2024-01-16T02:46:06;3.30;;;1.65;;
83410;SDS011;73340;53.132;8.174;2024-01-16T02:48:32;3.87;;;1.07;;
83410;SDS011;73340;53.132;8.174;2024-01-16T02:50:57;4.97;;;1.40;;
83410;SDS011;73340;53.132;8.174;2024-01-16T02:53:22;6.67;;;1.40;;
83410;SDS011;73340;53.132;8.174;2024-01-16T02:55:47;2.13;;;1.20;;
83410;SDS011;73340;53.132;8.174;2024-01-16T02:58:12;7.23;;;1.13;;
83410;SDS011;73340;53.132;8.174;2024-01-16T03:00:37;4.63;;;1.20;;
83410;SDS011;73340;53.132;8.174;2024-01-16T03:03:03;3.50;;;1.00;;
83410;SDS011;73340;53.132;8.174;2024-01-16T03:05:28;2.87;;;1.00;;
83410;SDS011;73340;53.132;8.174;2024-01-16T03:07:53;7.40;;;1.53;;
83410;SDS011;73340;53.132;8.174;2024-01-16T03:10:18;4.20;;;1.80;;
83410;SDS011;73340;53.132;8.174;2024-01-16T03:12:43;5.83;;;1.20;;
83410;SDS011;73340;53.132;8.174;2024-01-16T03:15:09;5.27;;;1.30;;
83410;SDS011;73340;53.132;8.174;2024-01-16T03:17:34;5.97;;;1.40;;
83410;SDS011;73340;53.132;8.174;2024-01-16T03:19:59;4.53;;;1.37;;
83410;SDS011;73340;53.132;8.174;2024-01-16T03:22:24;2.63;;;0.90;;
83410;SDS011;73340;53.132;8.174;2024-01-16T03:24:50;2.83;;;1.83;;
83410;SDS011;73340;53.132;8.174;2024-01-16T03:27:15;4.63;;;1.50;;
83410;SDS011;73340;53.132;8.174;2024-01-16T03:29:41;3.60;;;0.70;;
83410;SDS011;73340;53.132;8.174;2024-01-16T03:32:06;3.00;;;1.20;;
83410;SDS011;73340;53.132;8.174;2024-01-16T03:34:31;4.67;;;1.00;;
83410;SDS011;73340;53.132;8.174;2024-01-16T03:36:57;6.03;;;1.30;;
83410;SDS011;73340;53.132;8.174;2024-01-16T03:39:22;3.20;;;0.80;;
83410;SDS011;73340;53.132;8.174;2024-01-16T03:41:47;19.77;;;9.20;;
83410;SDS011;73340;53.132;8.174;2024-01-16T03:44:12;12.83;;;5.70;;
83410;SDS011;73340;53.132;8.174;2024-01-16T03:46:38;4.93;;;1.50;;
83410;SDS011;73340;53.132;8.174;2024-01-16T03:49:03;8.33;;;1.33;;
83410;SDS011;73340;53.132;8.174;2024-01-16T03:51:28;5.13;;;1.07;;
83410;SDS011;73340;53.132;8.174;2024-01-16T03:53:53;2.73;;;1.07;;
83410;SDS011;73340;53.132;8.174;2024-01-16T03:56:18;3.93;;;1.33;;
83410;SDS011;73340;53.132;8.174;2024-01-16T03:58:44;3.50;;;1.43;;
83410;SDS011;73340;53.132;8.174;2024-01-16T04:01:09;6.60;;;1.03;;
83410;SDS011;73340;53.132;8.174;2024-01-16T04:03:34;3.73;;;1.03;;
83410;SDS011;73340;53.132;8.174;2024-01-16T04:06:03;4.63;;;1.30;;
83410;SDS011;73340;53.132;8.174;2024-01-16T04:08:29;2.80;;;1.00;;
83410;SDS011;73340;53.132;8.174;2024-01-16T04:10:54;6.30;;;1.40;;
83410;SDS011;73340;53.132;8.174;2024-01-16T04:13:19;3.53;;;1.03;;
83410;SDS011;73340;53.132;8.174;2024-01-16T04:15:44;2.93;;;1.37;;
83410;SDS011;73340;53.132;8.174;2024-01-16T04:18:10;7.80;;;1.27;;
83410;SDS011;73340;53.132;8.174;2024-01-16T04:20:35;3.90;;;1.02;;
83410;SDS011;73340;53.132;8.174;2024-01-16T04:23:00;3.33;;;1.50;;
83410;SDS011;73340;53.132;8.174;2024-01-16T04:25:26;1.52;;;0.98;;
83410;SDS011;73340;53.132;8.174;2024-01-16T04:27:51;3.30;;;1.30;;
83410;SDS011;73340;53.132;8.174;2024-01-16T04:30:16;6.23;;;1.27;;
83410;SDS011;73340;53.132;8.174;2024-01-16T04:32:42;3.23;;;1.23;;
83410;SDS011;73340;53.132;8.174;2024-01-16T04:35:07;4.40;;;1.38;;
83410;SDS011;73340;53.132;8.174;2024-01-16T04:37:32;5.82;;;1.27;;
83410;SDS011;73340;53.132;8.174;2024-01-16T04:39:58;4.10;;;1.20;;
83410;SDS011;73340;53.132;8.174;2024-01-16T04:42:24;7.75;;;1.42;;
83410;SDS011;73340;53.132;8.174;2024-01-16T04:44:49;4.47;;;1.40;;
83410;SDS011;73340;53.132;8.174;2024-01-16T04:47:14;4.93;;;1.40;;
83410;SDS011;73340;53.132;8.174;2024-01-16T04:49:41;3.63;;;1.40;;
83410;SDS011;73340;53.132;8.174;2024-01-16T04:52:06;3.17;;;1.10;;
83410;SDS011;73340;53.132;8.174;2024-01-16T04:54:31;13.47;;;7.60;;
83410;SDS011;73340;53.132;8.174;2024-01-16T04:56:57;18.30;;;8.73;;
83410;SDS011;73340;53.132;8.174;2024-01-16T04:59:22;3.83;;;1.70;;
83410;SDS011;73340;53.132;8.174;2024-01-16T05:01:47;2.40;;;1.17;;
83410;SDS011;73340;53.132;8.174;2024-01-16T05:04:13;4.50;;;1.60;;
83410;SDS011;73340;53.132;8.174;2024-01-16T05:06:38;6.10;;;1.27;;
83410;SDS011;73340;53.132;8.174;2024-01-16T05:09:04;4.90;;;1.50;;
83410;SDS011;73340;53.132;8.174;2024-01-16T05:11:29;1.37;;;1.17;;
83410;SDS011;73340;53.132;8.174;2024-01-16T05:13:54;3.40;;;0.93;;
83410;SDS011;73340;53.132;8.174;2024-01-16T05:16:26;2.75;;;0.95;;
83410;SDS011;73340;53.132;8.174;2024-01-16T05:18:51;4.75;;;1.33;;
83410;SDS011;73340;53.132;8.174;2024-01-16T05:21:16;7.72;;;1.58;;
83410;SDS011;73340;53.132;8.174;2024-01-16T05:23:42;5.47;;;1.80;;
83410;SDS011;73340;53.132;8.174;2024-01-16T05:26:07;5.83;;;1.50;;
83410;SDS011;73340;53.132;8.174;2024-01-16T05:28:33;4.17;;;1.27;;
83410;SDS011;73340;53.132;8.174;2024-01-16T05:30:59;2.17;;;1.20;;
83410;SDS011;73340;53.132;8.174;2024-01-16T05:33:24;8.05;;;1.52;;
83410;SDS011;73340;53.132;8.174;2024-01-16T05:35:49;2.30;;;1.20;;
83410;SDS011;73340;53.132;8.174;2024-01-16T05:38:14;4.67;;;2.10;;
83410;SDS011;73340;53.132;8.174;2024-01-16T05:40:40;3.33;;;1.00;;
83410;SDS011;73340;53.132;8.174;2024-01-16T05:43:06;3.55;;;1.33;;
83410;SDS011;73340;53.132;8.174;2024-01-16T05:45:31;8.23;;;1.50;;
83410;SDS011;73340;53.132;8.174;2024-01-16T05:47:57;3.80;;;1.40;;
83410;SDS011;73340;53.132;8.174;2024-01-16T05:50:22;2.23;;;1.60;;
83410;SDS011;73340;53.132;8.174;2024-01-16T05:52:47;3.70;;;1.10;;
83410;SDS011;73340;53.132;8.174;2024-01-16T05:55:12;6.67;;;1.60;;
83410;SDS011;73340;53.132;8.174;2024-01-16T05:57:37;4.10;;;1.30;;
83410;SDS011;73340;53.132;8.174;2024-01-16T06:00:03;6.90;;;1.50;;
83410;SDS011;73340;53.132;8.174;2024-01-16T06:02:30;3.85;;;1.67;;
83410;SDS011;73340;53.132;8.174;2024-01-16T06:04:55;4.17;;;1.37;;
83410;SDS011;73340;53.132;8.174;2024-01-16T06:07:20;5.87;;;1.70;;
83410;SDS011;73340;53.132;8.174;2024-01-16T06:09:46;2.57;;;0.93;;
83410;SDS011;73340;53.132;8.174;2024-01-16T06:12:11;3.57;;;1.57;;
83410;SDS011;73340;53.132;8.174;2024-01-16T06:14:37;3.92;;;1.73;;
83410;SDS011;73340;53.132;8.174;2024-01-16T06:17:02;5.40;;;1.30;;
83410;SDS011;73340;53.132;8.174;2024-01-16T06:19:28;3.40;;;1.50;;
83410;SDS011;73340;53.132;8.174;2024-01-16T06:21:53;7.27;;;1.70;;
83410;SDS011;73340;53.132;8.174;2024-01-16T06:24:18;6.17;;;3.00;;
83410;SDS011;73340;53.132;8.174;2024-01-16T06:26:43;14.43;;;4.77;;
83410;SDS011;73340;53.132;8.174;2024-01-16T06:29:08;5.50;;;2.00;;
83410;SDS011;73340;53.132;8.174;2024-01-16T06:31:34;3.37;;;1.53;;
83410;SDS011;73340;53.132;8.174;2024-01-16T06:33:59;2.47;;;1.20;;
83410;SDS011;73340;53.132;8.174;2024-01-16T06:36:24;2.75;;;1.50;;
83410;SDS011;73340;53.132;8.174;2024-01-16T06:38:50;3.37;;;1.10;;
83410;SDS011;73340;53.132;8.174;2024-01-16T06:41:15;4.37;;;1.53;;
83410;SDS011;73340;53.132;8.174;2024-01-16T06:43:40;5.23;;;1.17;;
83410;SDS011;73340;53.132;8.174;2024-01-16T06:46:05;6.77;;;1.60;;
83410;SDS011;73340;53.132;8.174;2024-01-16T06:48:30;3.00;;;1.50;;
83410;SDS011;73340;53.132;8.174;2024-01-16T06:50:56;5.77;;;2.03;;
83410;SDS011;73340;53.132;8.174;2024-01-16T06:53:21;12.10;;;4.40;;
83410;SDS011;73340;53.132;8.174;2024-01-16T06:55:47;21.80;;;7.30;;
83410;SDS011;73340;53.132;8.174;2024-01-16T06:58:12;2.90;;;1.23;;
83410;SDS011;73340;53.132;8.174;2024-01-16T07:00:37;7.63;;;1.70;;
83410;SDS011;73340;53.132;8.174;2024-01-16T07:03:03;5.20;;;1.60;;
83410;SDS011;73340;53.132;8.174;2024-01-16T07:05:28;4.65;;;1.70;;
83410;SDS011;73340;53.132;8.174;2024-01-16T07:10:19;7.50;;;1.65;;
83410;SDS011;73340;53.132;8.174;2024-01-16T07:12:47;3.75;;;1.98;;
83410;SDS011;73340;53.132;8.174;2024-01-16T07:15:14;3.83;;;1.45;;
83410;SDS011;73340;53.132;8.174;2024-01-16T07:17:40;2.30;;;1.50;;
83410;SDS011;73340;53.132;8.174;2024-01-16T07:20:05;3.72;;;1.48;;
83410;SDS011;73340;53.132;8.174;2024-01-16T07:22:30;3.40;;;1.35;;
83410;SDS011;73340;53.132;8.174;2024-01-16T07:24:56;4.37;;;1.30;;
83410;SDS011;73340;53.132;8.174;2024-01-16T07:27:21;9.47;;;1.70;;
83410;SDS011;73340;53.132;8.174;2024-01-16T07:29:46;3.47;;;1.07;;
83410;SDS011;73340;53.132;8.174;2024-01-16T07:32:11;3.73;;;1.40;;
83410;SDS011;73340;53.132;8.174;2024-01-16T07:34:36;7.03;;;1.77;;
83410;SDS011;73340;53.132;8.174;2024-01-16T07:37:02;4.85;;;1.50;;
83410;SDS011;73340;53.132;8.174;2024-01-16T07:39:27;3.10;;;1.77;;
83410;SDS011;73340;53.132;8.174;2024-01-16T07:41:52;9.10;;;3.50;;
83410;SDS011;73340;53.132;8.174;2024-01-16T07:44:18;14.77;;;5.77;;
83410;SDS011;73340;53.132;8.174;2024-01-16T07:46:43;1.73;;;1.20;;
83410;SDS011;73340;53.132;8.174;2024-01-16T07:49:08;4.60;;;1.80;;
83410;SDS011;73340;53.132;8.174;2024-01-16T07:51:33;5.23;;;1.60;;
83410;SDS011;73340;53.132;8.174;2024-01-16T07:54:08;6.07;;;2.07;;
83410;SDS011;73340;53.132;8.174;2024-01-16T07:56:34;8.20;;;2.78;;
83410;SDS011;73340;53.132;8.174;2024-01-16T07:58:59;9.60;;;1.70;;
83410;SDS011;73340;53.132;8.174;2024-01-16T08:01:24;2.60;;;1.37;;
83410;SDS011;73340;53.132;8.174;2024-01-16T08:03:50;5.07;;;1.37;;
83410;SDS011;73340;53.132;8.174;2024-01-16T08:06:15;5.30;;;2.07;;
83410;SDS011;73340;53.132;8.174;2024-01-16T08:08:40;4.30;;;1.52;;
83410;SDS011;73340;53.132;8.174;2024-01-16T08:11:05;4.20;;;1.97;;
83410;SDS011;73340;53.132;8.174;2024-01-16T08:13:32;8.07;;;2.22;;
83410;SDS011;73340;53.132;8.174;2024-01-16T08:15:57;5.10;;;1.70;;
83410;SDS011;73340;53.132;8.174;2024-01-16T08:18:23;4.27;;;1.33;;
83410;SDS011;73340;53.132;8.174;2024-01-16T08:20:48;7.93;;;2.00;;
83410;SDS011;73340;53.132;8.174;2024-01-16T08:23:13;3.27;;;1.40;;
83410;SDS011;73340;53.132;8.174;2024-01-16T08:25:38;5.83;;;1.80;;
83410;SDS011;73340;53.132;8.174;2024-01-16T08:28:03;6.37;;;1.50;;
83410;SDS011;73340;53.132;8.174;2024-01-16T08:32:55;3.80;;;1.65;;
83410;SDS011;73340;53.132;8.174;2024-01-16T08:35:20;4.57;;;1.50;;
83410;SDS011;73340;53.132;8.174;2024-01-16T08:37:45;5.90;;;1.60;;
83410;SDS011;73340;53.132;8.174;2024-01-16T08:40:10;5.50;;;2.07;;
83410;SDS011;73340;53.132;8.174;2024-01-16T08:42:36;9.00;;;2.35;;
83410;SDS011;73340;53.132;8.174;2024-01-16T08:45:01;6.37;;;1.60;;
83410;SDS011;73340;53.132;8.174;2024-01-16T08:47:27;6.25;;;2.47;;
83410;SDS011;73340;53.132;8.174;2024-01-16T08:49:53;3.80;;;1.63;;
83410;SDS011;73340;53.132;8.174;2024-01-16T08:52:18;8.45;;;1.95;;
83410;SDS011;73340;53.132;8.174;2024-01-16T08:54:43;5.13;;;2.10;;
83410;SDS011;73340;53.132;8.174;2024-01-16T08:57:09;5.97;;;2.25;;
83410;SDS011;73340;53.132;8.174;2024-01-16T08:59:35;3.80;;;2.08;;
83410;SDS011;73340;53.132;8.174;2024-01-16T09:02:00;7.97;;;2.57;;
83410;SDS011;73340;53.132;8.174;2024-01-16T09:04:25;10.80;;;4.27;;
83410;SDS011;73340;53.132;8.174;2024-01-16T09:06:51;10.43;;;4.77;;
83410;SDS011;73340;53.132;8.174;2024-01-16T09:09:17;5.90;;;2.75;;
83410;SDS011;73340;53.132;8.174;2024-01-16T09:11:42;3.43;;;2.20;;
83410;SDS011;73340;53.132;8.174;2024-01-16T09:14:07;7.30;;;2.33;;
83410;SDS011;73340;53.132;8.174;2024-01-16T09:16:32;3.80;;;1.63;;
83410;SDS011;73340;53.132;8.174;2024-01-16T09:18:58;4.17;;;2.30;;
83410;SDS011;73340;53.132;8.174;2024-01-16T09:21:23;6.53;;;2.17;;
83410;SDS011;73340;53.132;8.174;2024-01-16T09:23:48;6.63;;;2.28;;
83410;SDS011;73340;53.132;8.174;2024-01-16T09:26:13;2.83;;;1.50;;
83410;SDS011;73340;53.132;8.174;2024-01-16T09:28:38;6.37;;;2.10;;
83410;SDS011;73340;53.132;8.174;2024-01-16T09:31:05;6.47;;;2.37;;
83410;SDS011;73340;53.132;8.174;2024-01-16T09:33:31;5.97;;;2.50;;
83410;SDS011;73340;53.132;8.174;2024-01-16T09:35:56;11.53;;;3.07;;
83410;SDS011;73340;53.132;8.174;2024-01-16T09:38:21;6.53;;;2.53;;
83410;SDS011;73340;53.132;8.174;2024-01-16T09:40:46;5.27;;;2.80;;
83410;SDS011;73340;53.132;8.174;2024-01-16T09:45:38;4.97;;;2.45;;
83410;SDS011;73340;53.132;8.174;2024-01-16T09:48:03;5.50;;;2.03;;
83410;SDS011;73340;53.132;8.174;2024-01-16T09:50:29;4.70;;;2.60;;
83410;SDS011;73340;53.132;8.174;2024-01-16T09:52:55;10.27;;;2.60;;
83410;SDS011;73340;53.132;8.174;2024-01-16T09:55:20;4.68;;;2.85;;
83410;SDS011;73340;53.132;8.174;2024-01-16T09:57:46;5.90;;;2.53;;
83410;SDS011;73340;53.132;8.174;2024-01-16T10:00:12;5.95;;;2.67;;
83410;SDS011;73340;53.132;8.174;2024-01-16T10:02:40;7.07;;;2.45;;
83410;SDS011;73340;53.132;8.174;2024-01-16T10:05:07;7.72;;;3.60;;
83410;SDS011;73340;53.132;8.174;2024-01-16T10:07:33;4.88;;;3.05;;
83410;SDS011;73340;53.132;8.174;2024-01-16T10:09:59;12.40;;;3.38;;
83410;SDS011;73340;53.132;8.174;2024-01-16T10:12:25;10.25;;;3.70;;
83410;SDS011;73340;53.132;8.174;2024-01-16T10:14:50;6.63;;;2.97;;
83410;SDS011;73340;53.132;8.174;2024-01-16T10:17:17;9.55;;;3.60;;
83410;SDS011;73340;53.132;8.174;2024-01-16T10:22:19;7.70;;;3.35;;
83410;SDS011;73340;53.132;8.174;2024-01-16T10:24:44;7.10;;;3.63;;
83410;SDS011;73340;53.132;8.174;2024-01-16T10:27:10;5.82;;;2.85;;
83410;SDS011;73340;53.132;8.174;2024-01-16T10:29:35;8.57;;;2.73;;
83410;SDS011;73340;53.132;8.174;2024-01-16T10:32:01;14.63;;;6.57;;
83410;SDS011;73340;53.132;8.174;2024-01-16T10:34:26;11.85;;;4.18;;
83410;SDS011;73340;53.132;8.174;2024-01-16T10:36:58;8.00;;;3.80;;
83410;SDS011;73340;53.132;8.174;2024-01-16T10:39:23;7.72;;;2.75;;
83410;SDS011;73340;53.132;8.174;2024-01-16T10:41:54;9.43;;;3.63;;
83410;SDS011;73340;53.132;8.174;2024-01-16T10:44:20;6.60;;;3.38;;
83410;SDS011;73340;53.132;8.174;2024-01-16T10:46:45;7.80;;;3.00;;
83410;SDS011;73340;53.132;8.174;2024-01-16T10:49:11;6.73;;;3.40;;
83410;SDS011;73340;53.132;8.174;2024-01-16T10:51:36;7.10;;;3.33;;
83410;SDS011;73340;53.132;8.174;2024-01-16T10:54:02;8.87;;;3.03;;
83410;SDS011;73340;53.132;8.174;2024-01-16T10:56:31;6.28;;;3.00;;
83410;SDS011;73340;53.132;8.174;2024-01-16T11:01:28;6.60;;;3.50;;
83410;SDS011;73340;53.132;8.174;2024-01-16T11:03:53;5.47;;;2.67;;
83410;SDS011;73340;53.132;8.174;2024-01-16T11:06:22;8.52;;;3.53;;
83410;SDS011;73340;53.132;8.174;2024-01-16T11:08:48;9.80;;;3.55;;
83410;SDS011;73340;53.132;8.174;2024-01-16T11:11:13;7.82;;;3.35;;
83410;SDS011;73340;53.132;8.174;2024-01-16T11:13:39;8.77;;;3.58;;
83410;SDS011;73340;53.132;8.174;2024-01-16T11:18:32;5.85;;;3.17;;
83410;SDS011;73340;53.132;8.174;2024-01-16T11:20:57;6.38;;;3.22;;
83410;SDS011;73340;53.132;8.174;2024-01-16T11:25:48;6.77;;;4.30;;
83410;SDS011;73340;53.132;8.174;2024-01-16T11:28:14;7.63;;;3.53;;
83410;SDS011;73340;53.132;8.174;2024-01-16T11:30:41;11.10;;;3.65;;
83410;SDS011;73340;53.132;8.174;2024-01-16T11:33:41;6.65;;;2.60;;
83410;SDS011;73340;53.132;8.174;2024-01-16T11:35:52;7.00;;;3.25;;
83410;SDS011;73340;53.132;8.174;2024-01-16T11:38:18;8.53;;;2.70;;
83410;SDS011;73340;53.132;8.174;2024-01-16T11:40:46;8.88;;;2.95;;
83410;SDS011;73340;53.132;8.174;2024-01-16T11:45:56;5.60;;;3.10;;
83410;SDS011;73340;53.132;8.174;2024-01-16T11:48:23;9.32;;;3.35;;
83410;SDS011;73340;53.132;8.174;2024-01-16T11:50:49;7.93;;;3.70;;
83410;SDS011;73340;53.132;8.174;2024-01-16T11:53:30;25.17;;;12.00;;
83410;SDS011;73340;53.132;8.174;2024-01-16T11:56:02;17.25;;;7.32;;
83410;SDS011;73340;53.132;8.174;2024-01-16T12:01:26;5.90;;;3.03;;
83410;SDS011;73340;53.132;8.174;2024-01-16T12:04:04;6.30;;;3.33;;
83410;SDS011;73340;53.132;8.174;2024-01-16T12:06:30;9.85;;;3.20;;
83410;SDS011;73340;53.132;8.174;2024-01-16T12:09:10;13.07;;;4.35;;
83410;SDS011;73340;53.132;8.174;2024-01-16T12:11:35;6.97;;;3.35;;
83410;SDS011;73340;53.132;8.174;2024-01-16T12:14:01;7.35;;;3.50;;
83410;SDS011;73340;53.132;8.174;2024-01-16T12:16:26;7.43;;;3.67;;
83410;SDS011;73340;53.132;8.174;2024-01-16T12:21:17;13.27;;;4.38;;
83410;SDS011;73340;53.132;8.174;2024-01-16T12:23:42;10.50;;;3.83;;
83410;SDS011;73340;53.132;8.174;2024-01-16T12:26:07;19.50;;;8.67;;
83410;SDS011;73340;53.132;8.174;2024-01-16T12:28:33;12.27;;;4.78;;
83410;SDS011;73340;53.132;8.174;2024-01-16T12:33:23;13.47;;;3.90;;
83410;SDS011;73340;53.132;8.174;2024-01-16T12:38:14;10.40;;;4.17;;
83410;SDS011;73340;53.132;8.174;2024-01-16T12:40:41;7.95;;;3.85;;
83410;SDS011;73340;53.132;8.174;2024-01-16T12:43:07;8.05;;;3.83;;
83410;SDS011;73340;53.132;8.174;2024-01-16T12:45:34;8.43;;;4.63;;
83410;SDS011;73340;53.132;8.174;2024-01-16T12:47:59;9.63;;;4.83;;
83410;SDS011;73340;53.132;8.174;2024-01-16T12:52:53;10.10;;;4.45;;
83410;SDS011;73340;53.132;8.174;2024-01-16T12:55:25;13.80;;;6.43;;
83410;SDS011;73340;53.132;8.174;2024-01-16T12:58:10;15.40;;;5.00;;
83410;SDS011;73340;53.132;8.174;2024-01-16T13:00:35;9.13;;;5.00;;
83410;SDS011;73340;53.132;8.174;2024-01-16T13:03:01;8.98;;;4.63;;
83410;SDS011;73340;53.132;8.174;2024-01-16T13:08:01;15.63;;;8.00;;
83410;SDS011;73340;53.132;8.174;2024-01-16T13:10:28;22.95;;;9.50;;
83410;SDS011;73340;53.132;8.174;2024-01-16T13:13:10;18.88;;;9.18;;
83410;SDS011;73340;53.132;8.174;2024-01-16T13:15:36;11.32;;;4.70;;
83410;SDS011;73340;53.132;8.174;2024-01-16T13:25:17;6.78;;;3.45;;
83410;SDS011;73340;53.132;8.174;2024-01-16T13:27:42;8.33;;;4.23;;
83410;SDS011;73340;53.132;8.174;2024-01-16T13:30:07;9.97;;;4.53;;
83410;SDS011;73340;53.132;8.174;2024-01-16T13:32:33;10.23;;;4.75;;
83410;SDS011;73340;53.132;8.174;2024-01-16T13:35:01;12.55;;;4.30;;
83410;SDS011;73340;53.132;8.174;2024-01-16T13:37:32;18.27;;;7.60;;
83410;SDS011;73340;53.132;8.174;2024-01-16T13:39:57;13.93;;;6.17;;
83410;SDS011;73340;53.132;8.174;2024-01-16T13:42:22;10.03;;;5.10;;
83410;SDS011;73340;53.132;8.174;2024-01-16T13:44:47;11.70;;;3.83;;
83410;SDS011;73340;53.132;8.174;2024-01-16T13:47:13;7.93;;;3.22;;
83410;SDS011;73340;53.132;8.174;2024-01-16T13:49:39;6.25;;;3.92;;
83410;SDS011;73340;53.132;8.174;2024-01-16T13:52:05;8.07;;;4.10;;
83410;SDS011;73340;53.132;8.174;2024-01-16T13:54:30;6.40;;;3.75;;
83410;SDS011;73340;53.132;8.174;2024-01-16T13:56:56;8.85;;;3.78;;
83410;SDS011;73340;53.132;8.174;2024-01-16T13:59:21;4.83;;;3.63;;
83410;SDS011;73340;53.132;8.174;2024-01-16T14:01:46;8.47;;;3.33;;
83410;SDS011;73340;53.132;8.174;2024-01-16T14:04:11;7.00;;;3.17;;
83410;SDS011;73340;53.132;8.174;2024-01-16T14:06:37;7.20;;;3.93;;
83410;SDS011;73340;53.132;8.174;2024-01-16T14:09:02;9.37;;;3.53;;
83410;SDS011;73340;53.132;8.174;2024-01-16T14:11:27;5.82;;;3.20;;
83410;SDS011;73340;53.132;8.174;2024-01-16T14:13:53;8.63;;;4.15;;
83410;SDS011;73340;53.132;8.174;2024-01-16T14:16:19;4.72;;;3.08;;
83410;SDS011;73340;53.132;8.174;2024-01-16T14:18:44;10.73;;;3.70;;
83410;SDS011;73340;53.132;8.174;2024-01-16T14:21:10;6.37;;;3.40;;
83410;SDS011;73340;53.132;8.174;2024-01-16T14:28:25;6.45;;;3.38;;
83410;SDS011;73340;53.132;8.174;2024-01-16T14:30:52;6.43;;;3.72;;
83410;SDS011;73340;53.132;8.174;2024-01-16T14:33:17;8.63;;;4.30;;
83410;SDS011;73340;53.132;8.174;2024-01-16T14:35:42;10.20;;;4.57;;
83410;SDS011;73340;53.132;8.174;2024-01-16T14:38:07;10.77;;;5.07;;
83410;SDS011;73340;53.132;8.174;2024-01-16T14:42:58;11.07;;;4.10;;
83410;SDS011;73340;53.132;8.174;2024-01-16T14:45:24;12.27;;;5.15;;
83410;SDS011;73340;53.132;8.174;2024-01-16T14:50:15;23.27;;;11.75;;
83410;SDS011;73340;53.132;8.174;2024-01-16T14:52:45;24.08;;;12.30;;
83410;SDS011;73340;53.132;8.174;2024-01-16T14:55:11;9.15;;;5.57;;
83410;SDS011;73340;53.132;8.174;2024-01-16T14:57:39;13.52;;;6.10;;
83410;SDS011;73340;53.132;8.174;2024-01-16T15:00:10;9.93;;;5.28;;
83410;SDS011;73340;53.132;8.174;2024-01-16T15:02:51;13.77;;;6.07;;
83410;SDS011;73340;53.132;8.174;2024-01-16T15:05:16;10.88;;;5.57;;
83410;SDS011;73340;53.132;8.174;2024-01-16T15:07:42;12.57;;;5.30;;
83410;SDS011;73340;53.132;8.174;2024-01-16T15:10:08;10.68;;;6.20;;
83410;SDS011;73340;53.132;8.174;2024-01-16T15:12:34;15.05;;;5.57;;
83410;SDS011;73340;53.132;8.174;2024-01-16T15:14:59;15.05;;;7.55;;
83410;SDS011;73340;53.132;8.174;2024-01-16T15:17:25;12.80;;;5.80;;
83410;SDS011;73340;53.132;8.174;2024-01-16T15:19:52;12.27;;;5.97;;
83410;SDS011;73340;53.132;8.174;2024-01-16T15:22:17;14.50;;;6.73;;
83410;SDS011;73340;53.132;8.174;2024-01-16T15:24:42;12.50;;;6.20;;
83410;SDS011;73340;53.132;8.174;2024-01-16T15:29:33;15.90;;;6.72;;
83410;SDS011;73340;53.132;8.174;2024-01-16T15:31:58;13.43;;;6.27;;
83410;SDS011;73340;53.132;8.174;2024-01-16T15:34:23;14.37;;;6.20;;
83410;SDS011;73340;53.132;8.174;2024-01-16T15:36:48;14.27;;;6.70;;